createdAt,value
2023-05-24T00:00:13.215Z,67.81
2023-05-24T00:02:42.227Z,67.90
2023-05-24T00:05:10.195Z,68.21
2023-05-24T00:07:38.003Z,67.96
2023-05-24T00:10:05.299Z,68.73
2023-05-24T00:12:32.204Z,68.05
2023-05-24T00:14:59.057Z,68.11
2023-05-24T00:17:30.438Z,68.66
2023-05-24T00:20:00.430Z,68.16
2023-05-24T00:22:27.121Z,69.14
2023-05-24T00:24:53.738Z,69.88
2023-05-24T00:27:20.424Z,70.10
2023-05-24T00:29:49.329Z,70.25
2023-05-24T00:32:16.128Z,70.26
2023-05-24T00:34:42.707Z,70.77
2023-05-24T00:37:14.991Z,70.65
2023-05-24T00:39:43.211Z,71.33
2023-05-24T00:42:10.176Z,70.96
2023-05-24T00:44:36.884Z,71.56
2023-05-24T00:47:03.823Z,71.70
2023-05-24T00:49:31.467Z,72.92
2023-05-24T00:51:58.037Z,72.19
2023-05-24T00:54:26.401Z,73.17
2023-05-24T00:56:53.792Z,72.52
2023-05-24T00:59:20.662Z,72.86
2023-05-24T01:01:47.448Z,72.96
2023-05-24T01:04:14.730Z,72.84
2023-05-24T01:07:02.528Z,72.36
2023-05-24T01:09:34.120Z,72.42
2023-05-24T01:12:06.333Z,73.17
2023-05-24T01:14:34.006Z,72.94
2023-05-24T01:17:15.233Z,73.25
2023-05-24T01:19:57.530Z,73.72
2023-05-24T01:22:43.134Z,73.87
2023-05-24T01:25:18.538Z,74.18
2023-05-24T01:27:47.221Z,74.22
2023-05-24T01:30:20.518Z,74.94
2023-05-24T01:32:48.521Z,74.45
2023-05-24T01:35:15.162Z,74.86
2023-05-24T01:37:41.940Z,74.64
2023-05-24T01:40:12.117Z,73.99
2023-05-24T01:42:48.738Z,75.50
2023-05-24T01:45:23.231Z,75.09
2023-05-24T01:48:03.379Z,75.18
2023-05-24T01:50:39.158Z,75.48
2023-05-24T01:53:09.772Z,75.91
2023-05-24T01:55:37.652Z,76.00
2023-05-24T01:58:05.146Z,75.66
2023-05-24T02:00:32.958Z,76.05
2023-05-24T02:03:01.902Z,76.31
2023-05-24T02:05:29.051Z,76.21
2023-05-24T02:08:12.723Z,76.27
2023-05-24T02:10:41.510Z,77.09
2023-05-24T02:13:11.519Z,76.93
2023-05-24T02:15:38.624Z,77.52
2023-05-24T02:18:08.404Z,77.52
2023-05-24T02:20:38.199Z,77.65
2023-05-24T02:23:05.122Z,77.25
2023-05-24T02:25:32.703Z,77.83
2023-05-24T02:27:59.845Z,78.05
2023-05-24T02:30:26.510Z,77.91
2023-05-24T02:32:53.531Z,77.85
2023-05-24T02:35:20.499Z,78.10
2023-05-24T02:37:47.447Z,79.04
2023-05-24T02:40:14.357Z,78.57
2023-05-24T02:42:43.212Z,79.12
2023-05-24T02:45:10.179Z,78.62
2023-05-24T02:47:39.672Z,79.50
2023-05-24T02:50:07.369Z,78.84
2023-05-24T02:52:34.396Z,79.10
2023-05-24T02:55:01.074Z,78.86
2023-05-24T02:57:28.875Z,79.36
2023-05-24T02:59:56.069Z,78.74
2023-05-24T03:02:23.024Z,78.82
2023-05-24T03:04:49.633Z,79.24
2023-05-24T03:10:06.176Z,79.84
2023-05-24T03:12:33.064Z,79.45
2023-05-24T03:15:03.184Z,79.75
2023-05-24T03:17:31.483Z,79.95
2023-05-24T03:19:58.551Z,79.61
2023-05-24T03:22:25.432Z,79.73
2023-05-24T03:24:52.157Z,79.88
2023-05-24T03:27:22.276Z,80.20
2023-05-24T03:29:52.356Z,80.17
2023-05-24T03:32:23.535Z,80.26
2023-05-24T03:34:51.434Z,80.15
2023-05-24T03:37:20.020Z,79.99
2023-05-24T03:39:47.530Z,79.43
2023-05-24T03:42:34.566Z,79.69
2023-05-24T03:45:07.890Z,79.19
2023-05-24T03:47:45.652Z,79.66
2023-05-24T03:50:14.338Z,79.00
2023-05-24T03:52:42.019Z,79.82
2023-05-24T03:55:10.921Z,79.81
2023-05-24T03:57:37.598Z,79.22
2023-05-24T04:00:07.033Z,79.02
2023-05-24T04:02:40.769Z,79.96
2023-05-24T04:05:10.181Z,79.64
2023-05-24T04:07:38.322Z,79.24
2023-05-24T04:10:05.981Z,79.72
2023-05-24T04:12:33.096Z,78.50
2023-05-24T04:15:02.527Z,77.88
2023-05-24T04:17:40.892Z,78.06
2023-05-24T04:20:12.101Z,78.73
2023-05-24T04:22:39.184Z,79.03
2023-05-24T04:25:06.647Z,79.02
2023-05-24T04:27:33.509Z,79.18
2023-05-24T04:30:00.760Z,78.97
2023-05-24T04:32:32.677Z,78.62
2023-05-24T04:34:59.439Z,79.29
2023-05-24T04:37:26.242Z,79.05
2023-05-24T04:39:53.246Z,78.73
2023-05-24T04:42:21.467Z,79.03
2023-05-24T04:44:48.184Z,78.83
2023-05-24T04:47:15.186Z,78.15
2023-05-24T04:49:41.824Z,78.81
2023-05-24T04:52:08.647Z,79.26
2023-05-24T04:54:37.835Z,79.18
2023-05-24T04:57:04.567Z,79.11
2023-05-24T04:59:33.744Z,78.81
2023-05-24T05:02:01.881Z,78.61
2023-05-24T05:04:30.244Z,77.32
2023-05-24T05:06:59.319Z,77.75
2023-05-24T05:09:28.299Z,77.61
2023-05-24T05:11:56.710Z,77.95
2023-05-24T05:14:23.459Z,76.31
2023-05-24T05:16:50.144Z,76.84
2023-05-24T05:19:24.165Z,76.48
2023-05-24T05:21:55.235Z,76.69
2023-05-24T05:24:23.773Z,76.92
2023-05-24T05:26:50.535Z,77.10
2023-05-24T05:29:17.162Z,76.98
2023-05-24T05:31:51.042Z,77.44
2023-05-24T05:34:18.775Z,78.33
2023-05-24T05:36:46.872Z,77.24
2023-05-24T05:39:14.151Z,77.41
2023-05-24T05:41:45.674Z,77.30
2023-05-24T05:44:13.034Z,77.25
2023-05-24T05:46:39.780Z,77.45
2023-05-24T05:49:06.913Z,77.71
2023-05-24T05:51:33.497Z,77.93
2023-05-24T05:54:00.777Z,78.65
2023-05-24T05:56:27.848Z,77.29
2023-05-24T05:58:54.788Z,76.74
2023-05-24T06:01:21.439Z,76.71
2023-05-24T06:03:49.157Z,77.20
2023-05-24T06:06:15.838Z,77.91
2023-05-24T06:08:42.647Z,77.66
2023-05-24T06:11:09.231Z,77.72
2023-05-24T06:13:35.902Z,77.27
2023-05-24T06:16:04.799Z,78.23
2023-05-24T06:18:32.685Z,76.75
2023-05-24T06:21:02.676Z,76.40
2023-05-24T06:23:30.068Z,76.42
2023-05-24T06:25:56.674Z,74.63
2023-05-24T06:28:23.443Z,74.11
2023-05-24T06:30:50.062Z,75.43
2023-05-24T06:33:16.745Z,76.02
2023-05-24T06:35:43.424Z,73.54
2023-05-24T06:38:10.583Z,74.65
2023-05-24T06:40:37.165Z,73.46
2023-05-24T06:43:04.806Z,72.24
2023-05-24T06:45:31.856Z,71.67
2023-05-24T06:47:58.993Z,72.12
2023-05-24T06:50:25.620Z,70.91
2023-05-24T06:52:52.305Z,70.42
2023-05-24T06:55:19.524Z,72.09
2023-05-24T06:57:46.172Z,71.55
2023-05-24T07:00:13.360Z,72.50
2023-05-24T07:02:40.090Z,71.16
2023-05-24T07:05:12.206Z,72.06
2023-05-24T07:07:40.153Z,72.15
2023-05-24T07:10:11.047Z,71.54
2023-05-24T07:12:38.160Z,70.50
2023-05-24T07:15:09.941Z,70.73
2023-05-24T07:17:37.235Z,71.25
2023-05-24T07:20:07.073Z,70.46
2023-05-24T07:22:34.599Z,70.04
2023-05-24T07:25:01.581Z,69.52
2023-05-24T07:27:30.961Z,68.64
2023-05-24T07:30:02.905Z,68.56
2023-05-24T07:32:29.761Z,68.25
2023-05-24T07:34:56.521Z,66.73
2023-05-24T07:37:24.684Z,67.77
2023-05-24T07:39:52.222Z,68.20
2023-05-24T07:42:18.958Z,68.14
2023-05-24T07:44:45.879Z,68.33
2023-05-24T07:47:15.854Z,68.64
2023-05-24T07:49:42.654Z,67.90
2023-05-24T07:52:09.210Z,68.09
2023-05-24T07:54:36.318Z,68.89
2023-05-24T07:57:06.691Z,68.62
2023-05-24T07:59:35.669Z,69.91
2023-05-24T08:02:05.586Z,69.73
2023-05-24T08:04:33.405Z,70.30
2023-05-24T08:07:03.810Z,69.40
2023-05-24T08:09:33.808Z,70.19
2023-05-24T08:12:07.734Z,69.96
2023-05-24T08:14:34.413Z,69.71
2023-05-24T08:17:01.680Z,69.04
2023-05-24T08:19:35.831Z,68.89
2023-05-24T08:22:05.529Z,67.82
2023-05-24T08:24:34.920Z,67.65
2023-05-24T08:27:02.836Z,68.08
2023-05-24T08:29:29.911Z,67.29
2023-05-24T08:31:56.484Z,67.71
2023-05-24T08:34:23.282Z,67.73
2023-05-24T08:36:50.063Z,67.45
2023-05-24T08:39:16.774Z,66.46
2023-05-24T08:41:44.503Z,66.79
2023-05-24T08:44:14.974Z,65.94
2023-05-24T08:46:41.683Z,66.35
2023-05-24T08:49:11.877Z,65.16
2023-05-24T08:51:39.727Z,65.63
2023-05-24T08:54:07.059Z,65.58
2023-05-24T08:56:33.833Z,65.42
2023-05-24T08:59:00.587Z,64.11
2023-05-24T09:01:30.520Z,63.85
2023-05-24T09:03:59.987Z,63.37
2023-05-24T09:06:26.932Z,63.04
2023-05-24T09:08:54.127Z,63.46
2023-05-24T09:11:22.883Z,63.27
2023-05-24T09:13:49.801Z,64.62
2023-05-24T09:16:16.990Z,63.63
2023-05-24T09:18:43.692Z,63.34
2023-05-24T09:21:11.684Z,63.83
2023-05-24T09:23:38.607Z,62.85
2023-05-24T09:26:09.478Z,62.55
2023-05-24T09:28:39.081Z,61.87
2023-05-24T09:31:08.076Z,61.01
2023-05-24T09:33:35.480Z,60.66
2023-05-24T09:36:03.179Z,60.40
2023-05-24T09:38:30.089Z,60.79
2023-05-24T09:41:06.579Z,61.24
2023-05-24T09:43:37.292Z,61.62
2023-05-24T09:46:04.815Z,59.96
2023-05-24T09:48:31.964Z,60.27
2023-05-24T09:51:06.189Z,58.62
2023-05-24T09:53:34.033Z,59.41
2023-05-24T09:56:01.920Z,59.43
2023-05-24T09:58:35.081Z,57.34
2023-05-24T10:01:09.188Z,58.43
2023-05-24T10:03:39.891Z,57.80
2023-05-24T10:06:09.896Z,57.63
2023-05-24T10:08:36.793Z,58.88
2023-05-24T10:11:04.845Z,56.86
2023-05-24T10:13:37.976Z,55.36
2023-05-24T10:16:04.773Z,57.78
2023-05-24T10:18:31.616Z,56.82
2023-05-24T10:21:01.598Z,57.76
2023-05-24T10:23:32.525Z,57.13
2023-05-24T10:26:10.081Z,57.73
2023-05-24T10:29:06.137Z,56.79
2023-05-24T10:31:34.566Z,55.82
2023-05-24T10:34:07.952Z,55.96
2023-05-24T10:36:36.939Z,55.54
2023-05-24T10:39:03.835Z,56.57
2023-05-24T10:41:38.676Z,59.13
2023-05-24T10:44:10.443Z,59.51
2023-05-24T10:46:38.413Z,59.03
2023-05-24T10:49:06.773Z,58.18
2023-05-24T10:51:34.842Z,57.95
2023-05-24T10:54:11.198Z,58.70
2023-05-24T10:56:44.661Z,58.58
2023-05-24T10:59:22.596Z,58.65
2023-05-24T11:01:55.185Z,58.73
2023-05-24T11:04:22.126Z,59.13
2023-05-24T11:06:49.720Z,59.65
2023-05-24T11:09:17.233Z,60.26
2023-05-24T11:11:48.507Z,59.26
2023-05-24T11:14:18.767Z,60.73
2023-05-24T11:16:46.219Z,59.04
2023-05-24T11:19:18.006Z,57.96
2023-05-24T11:21:48.466Z,57.82
2023-05-24T11:24:16.943Z,57.56
2023-05-24T11:26:44.121Z,55.13
2023-05-24T11:29:13.615Z,55.28
2023-05-24T11:31:46.860Z,55.93
2023-05-24T11:34:13.713Z,55.86
2023-05-24T11:36:43.414Z,55.61
2023-05-24T11:39:10.166Z,55.94
2023-05-24T11:41:38.174Z,57.27
2023-05-24T11:44:05.278Z,58.32
2023-05-24T11:46:32.459Z,59.42
2023-05-24T11:48:59.509Z,58.47
2023-05-24T11:51:27.474Z,57.41
2023-05-24T11:53:54.956Z,56.93
2023-05-24T11:56:23.507Z,55.40
2023-05-24T11:58:53.393Z,52.71
2023-05-24T12:01:23.703Z,52.10
2023-05-24T12:03:54.726Z,53.62
2023-05-24T12:06:22.072Z,52.39
2023-05-24T12:08:51.817Z,54.59
2023-05-24T12:11:18.551Z,56.74
2023-05-24T12:13:45.217Z,58.07
2023-05-24T12:16:15.466Z,58.17
2023-05-24T12:18:51.437Z,58.36
2023-05-24T12:21:29.950Z,58.02
2023-05-24T12:23:56.543Z,57.48
2023-05-24T12:26:26.334Z,57.87
2023-05-24T12:28:58.397Z,57.63
2023-05-24T12:31:33.649Z,57.51
2023-05-24T12:34:00.434Z,57.23
2023-05-24T12:36:28.547Z,55.76
2023-05-24T12:38:57.094Z,52.73
2023-05-24T12:41:23.695Z,53.43
2023-05-24T12:43:51.369Z,53.00
2023-05-24T12:46:17.973Z,53.48
2023-05-24T12:48:45.490Z,51.44
2023-05-24T12:51:12.170Z,49.47
2023-05-24T12:53:38.835Z,50.86
2023-05-24T12:56:05.679Z,50.99
2023-05-24T12:58:32.313Z,52.16
2023-05-24T13:00:59.033Z,53.32
2023-05-24T13:03:25.683Z,54.11
2023-05-24T13:05:55.746Z,53.67
2023-05-24T13:08:22.713Z,54.16
2023-05-24T13:10:50.803Z,55.11
2023-05-24T13:13:17.717Z,53.17
2023-05-24T13:15:44.702Z,54.47
2023-05-24T13:18:11.537Z,55.49
2023-05-24T13:20:39.848Z,56.30
2023-05-24T13:23:07.223Z,56.85
2023-05-24T13:25:33.849Z,57.13
2023-05-24T13:28:03.064Z,58.99
2023-05-24T13:30:30.180Z,57.89
2023-05-24T13:32:58.802Z,58.65
2023-05-24T13:35:29.593Z,58.66
2023-05-24T13:37:58.088Z,58.84
2023-05-24T13:40:25.329Z,57.64
2023-05-24T13:42:52.468Z,59.09
2023-05-24T13:45:19.136Z,57.45
2023-05-24T13:47:45.941Z,59.15
2023-05-24T13:50:12.662Z,59.27
2023-05-24T13:52:45.828Z,57.71
2023-05-24T13:55:13.480Z,58.03
2023-05-24T13:57:51.099Z,58.86
2023-05-24T14:00:18.411Z,57.10
2023-05-24T14:02:45.080Z,56.71
2023-05-24T14:05:25.982Z,56.63
2023-05-24T14:07:56.282Z,56.01
2023-05-24T14:10:22.898Z,57.37
2023-05-24T14:13:03.549Z,56.27
2023-05-24T14:15:39.645Z,57.01
2023-05-24T14:18:08.449Z,56.70
2023-05-24T14:20:38.121Z,57.08
2023-05-24T15:01:02.980Z,60.82
2023-05-24T15:03:29.726Z,59.92
2023-05-24T15:05:56.461Z,58.84
2023-05-24T15:08:23.106Z,59.16
2023-05-24T15:10:49.629Z,57.54
2023-05-24T15:13:16.352Z,58.60
2023-05-24T15:15:43.335Z,59.13
2023-05-24T15:18:10.078Z,58.65
2023-05-24T15:20:37.063Z,58.78
2023-05-24T15:23:04.094Z,58.31
2023-05-24T15:25:30.679Z,57.95
2023-05-24T15:27:57.976Z,58.53
2023-05-24T15:30:24.654Z,59.48
2023-05-24T15:32:51.376Z,61.00
2023-05-24T15:35:17.982Z,60.42
2023-05-24T15:37:44.729Z,59.86
2023-05-24T15:40:11.700Z,60.89
2023-05-24T15:42:38.480Z,61.47
2023-05-24T15:45:05.718Z,61.67
2023-05-24T15:47:37.958Z,62.14
2023-05-24T15:50:04.666Z,61.02
2023-05-24T15:52:31.232Z,60.88
2023-05-24T15:54:57.806Z,59.60
2023-05-24T15:57:24.384Z,58.94
2023-05-24T15:59:51.083Z,59.97
2023-05-24T16:02:20.889Z,59.08
2023-05-24T16:04:48.059Z,59.16
2023-05-24T16:07:14.652Z,58.85
2023-05-24T16:09:41.243Z,58.86
2023-05-24T16:12:07.898Z,58.22
2023-05-24T16:14:34.536Z,58.41
2023-05-24T16:17:07.210Z,59.09
2023-05-24T16:19:33.926Z,59.33
2023-05-24T16:22:00.634Z,59.31
2023-05-24T16:24:27.695Z,59.12
2023-05-24T16:26:54.379Z,59.12
2023-05-24T16:29:21.468Z,58.39
2023-05-24T16:31:48.165Z,56.86
2023-05-24T16:34:14.802Z,57.99
2023-05-24T16:36:41.633Z,58.01
2023-05-24T16:39:08.318Z,55.92
2023-05-24T16:41:38.281Z,55.85
2023-05-24T16:44:04.974Z,56.28
2023-05-24T16:46:31.791Z,55.77
2023-05-24T16:48:59.084Z,55.68
2023-05-24T16:51:25.835Z,57.47
2023-05-24T16:53:52.441Z,59.43
2023-05-24T16:56:18.980Z,60.60
2023-05-24T16:58:45.756Z,61.43
2023-05-24T17:01:12.397Z,62.73
2023-05-24T17:03:39.106Z,63.37
2023-05-24T17:06:05.937Z,63.37
2023-05-24T17:08:36.556Z,64.07
2023-05-24T17:11:03.480Z,63.41
2023-05-24T17:13:30.162Z,62.37
2023-05-24T17:15:57.354Z,62.81
2023-05-24T17:18:28.172Z,62.77
2023-05-24T17:20:59.890Z,62.61
2023-05-24T17:23:27.096Z,61.83
2023-05-24T17:25:55.422Z,61.81
2023-05-24T17:28:27.465Z,61.48
2023-05-24T17:30:57.484Z,60.94
2023-05-24T17:33:24.407Z,60.44
2023-05-24T17:35:51.218Z,61.30
2023-05-24T17:38:18.501Z,60.38
2023-05-24T17:40:49.019Z,60.70
2023-05-24T17:43:15.699Z,61.39
2023-05-24T17:45:42.495Z,60.67
2023-05-24T17:48:09.238Z,61.31
2023-05-24T17:50:36.359Z,60.88
2023-05-24T17:53:03.300Z,61.29
2023-05-24T17:55:29.840Z,61.66
2023-05-24T17:57:56.747Z,61.50
2023-05-24T18:00:23.406Z,61.38
2023-05-24T18:02:50.200Z,61.47
2023-05-24T18:05:17.026Z,62.59
2023-05-24T18:07:43.841Z,62.38
2023-05-24T18:10:10.785Z,63.13
2023-05-24T18:12:37.706Z,62.66
2023-05-24T18:15:05.025Z,61.89
2023-05-24T18:17:31.689Z,62.68
2023-05-24T18:19:58.309Z,62.71
2023-05-24T18:22:24.948Z,63.18
2023-05-24T18:24:51.503Z,63.22
2023-05-24T18:27:18.168Z,63.99
2023-05-24T18:29:44.687Z,64.15
2023-05-24T18:32:11.344Z,64.91
2023-05-24T18:34:37.982Z,64.62
2023-05-24T18:37:04.842Z,64.55
2023-05-24T18:39:31.468Z,64.97
2023-05-24T18:41:58.181Z,65.47
2023-05-24T18:44:24.783Z,65.52
2023-05-24T18:46:55.583Z,65.29
2023-05-24T18:49:22.849Z,65.30
2023-05-24T18:51:49.488Z,65.17
2023-05-24T18:54:16.079Z,65.09
2023-05-24T18:56:42.670Z,66.10
2023-05-24T18:59:11.568Z,66.69
2023-05-24T19:01:39.162Z,66.52
2023-05-24T19:04:06.055Z,65.76
2023-05-24T19:06:32.805Z,66.15
2023-05-24T19:09:00.452Z,66.50
2023-05-24T19:11:27.172Z,66.56
2023-05-24T19:13:53.810Z,67.66
2023-05-24T19:16:20.443Z,67.33
2023-05-24T19:18:47.238Z,67.78
2023-05-24T19:21:13.940Z,67.49
2023-05-24T19:23:40.745Z,68.29
2023-05-24T19:26:07.381Z,68.20
2023-05-24T19:28:37.734Z,68.22
2023-05-24T19:31:04.521Z,68.23
2023-05-24T19:33:31.107Z,68.88
2023-05-24T19:35:57.705Z,69.04
2023-05-24T19:38:24.264Z,68.56
2023-05-24T19:40:50.886Z,69.23
2023-05-24T19:43:17.437Z,69.72
2023-05-24T19:45:44.384Z,70.29
2023-05-24T19:48:11.127Z,70.24
2023-05-24T19:50:39.354Z,70.75
2023-05-24T19:53:05.992Z,71.34
2023-05-24T19:55:32.712Z,71.60
2023-05-24T19:57:59.283Z,72.04
2023-05-24T20:00:25.851Z,72.99
2023-05-24T20:02:52.478Z,72.89
2023-05-24T20:05:19.109Z,72.87
2023-05-24T20:07:45.893Z,73.09
2023-05-24T20:10:12.949Z,73.29
2023-05-24T20:12:39.737Z,73.00
2023-05-24T20:15:09.498Z,73.11
2023-05-24T20:17:36.307Z,72.95
2023-05-24T20:20:04.188Z,72.55
2023-05-24T20:22:31.144Z,72.50
2023-05-24T20:24:57.709Z,72.65
2023-05-24T20:27:24.273Z,72.93
2023-05-24T20:29:51.063Z,72.31
2023-05-24T20:32:17.821Z,72.17
2023-05-24T20:34:44.372Z,72.16
2023-05-24T20:37:10.975Z,72.12
2023-05-24T20:39:37.544Z,72.49
2023-05-24T20:42:04.228Z,72.47
2023-05-24T20:44:32.598Z,72.55
2023-05-24T20:46:59.309Z,72.63
2023-05-24T20:49:25.816Z,73.04
2023-05-24T20:51:52.551Z,73.42
2023-05-24T20:54:19.103Z,73.42
2023-05-24T20:56:45.954Z,72.98
2023-05-24T20:59:12.507Z,73.32
2023-05-24T21:01:39.198Z,73.81
2023-05-24T21:04:05.790Z,74.01
2023-05-24T21:06:34.302Z,73.77
2023-05-24T21:09:01.825Z,74.11
2023-05-24T21:11:28.567Z,74.76
2023-05-24T21:13:56.726Z,74.71
2023-05-24T21:16:23.655Z,74.62
2023-05-24T21:18:51.237Z,75.03
2023-05-24T21:21:18.080Z,74.76
2023-05-24T21:23:44.720Z,75.24
2023-05-24T21:26:11.383Z,75.69
2023-05-24T21:28:38.297Z,76.52
2023-05-24T21:31:04.942Z,76.65
2023-05-24T21:33:31.555Z,76.69
2023-05-24T21:35:58.581Z,76.74
2023-05-24T21:38:25.125Z,76.68
2023-05-24T21:40:51.714Z,76.63
2023-05-24T21:43:18.246Z,76.35
2023-05-24T21:45:45.196Z,78.24
2023-05-24T21:48:11.898Z,77.75
2023-05-24T21:50:38.491Z,77.29
2023-05-24T21:53:05.039Z,76.60
2023-05-24T21:55:31.630Z,76.25
2023-05-24T21:57:58.189Z,76.59
2023-05-24T22:00:25.862Z,76.51
2023-05-24T22:02:52.550Z,77.40
2023-05-24T22:05:19.272Z,77.30
2023-05-24T22:07:46.070Z,79.03
2023-05-24T22:10:12.844Z,78.91
2023-05-24T22:12:39.521Z,79.78
2023-05-24T22:15:06.621Z,78.42
2023-05-24T22:17:33.262Z,77.96
2023-05-24T22:20:04.500Z,78.19
2023-05-24T22:22:31.150Z,77.23
2023-05-24T22:24:57.720Z,77.30
2023-05-24T22:27:24.288Z,76.80
2023-05-24T22:29:51.039Z,77.22
2023-05-24T22:32:17.620Z,77.98
2023-05-24T22:34:44.171Z,76.80
2023-05-24T22:37:10.977Z,77.02
2023-05-24T22:39:37.740Z,76.63
2023-05-24T22:42:04.466Z,77.07
2023-05-24T22:44:31.020Z,77.20
2023-05-24T22:46:57.603Z,76.87
2023-05-24T22:49:24.594Z,77.34
2023-05-24T22:51:53.238Z,78.26
2023-05-24T22:54:19.788Z,77.80
2023-05-24T22:56:46.578Z,77.08
2023-05-24T22:59:13.241Z,77.04
2023-05-24T23:01:39.938Z,77.71
2023-05-24T23:04:19.902Z,77.77
2023-05-24T23:06:47.623Z,78.29
2023-05-24T23:09:14.259Z,79.28
2023-05-24T23:11:43.043Z,80.09
2023-05-24T23:14:11.566Z,81.22
2023-05-24T23:16:45.544Z,81.77
2023-05-24T23:19:18.362Z,81.07
2023-05-24T23:21:45.600Z,80.57
2023-05-24T23:24:14.622Z,80.70
2023-05-24T23:26:41.876Z,80.81
2023-05-24T23:29:08.739Z,80.49
2023-05-24T23:31:35.825Z,80.78
2023-05-24T23:34:02.527Z,80.92
2023-05-24T23:36:29.103Z,81.07
2023-05-24T23:38:55.643Z,80.75
2023-05-24T23:41:22.573Z,80.60
2023-05-24T23:43:49.184Z,81.24
2023-05-24T23:46:17.101Z,80.61
2023-05-24T23:48:45.559Z,80.51
2023-05-24T23:51:12.293Z,80.88
2023-05-24T23:53:38.816Z,80.28
2023-05-24T23:56:05.479Z,80.61
2023-05-24T23:58:32.083Z,79.97
